Shark River Manor, New Jersey
Current Conditions -  °F | °C
As of 11:35 AM on Sunday 21 Dec 2014 (Local Time) from KBLM Reporting Station
Overcast Overcast  
Wind Chill: 26°   Ceiling: 2100
Heat Index: 34°   Visibility: 10mi
Dew Point: 21°   Wind: 10mph
Humidity: 60%   Direction: 310°NW
Pressure: 30.3"   Gusts: NA
Location:  40.1681°N, 74.0774°W
Report Text: KBLM 211635Z AUTO 31009KT 250V320 10SM OVC021 01/M06 A3030 RMK AO1
Loading
Personal Weather Stations






























Interactive Weather Map New forecast layout! Learn more

10-Day Weather Forecast

Advertisements
Track Severe Weather on mobile